Sardinia, South Carolina
Current Conditions -  °F | °C
As of 12:35 AM on Wednesday 26 Nov 2014 (Local Time) from KSMS Reporting Station
Moderate Rain Moderate Rain  
Wind Chill: 59°   Ceiling: 400
Heat Index: 59°   Visibility: 2mi
Dew Point: 59°   Wind: 7mph
Humidity: 100%   Direction: 10°N
Pressure: 29.91"   Gusts: NA
Location:  33.83°N, 80.08°W
Report Text: KSMS 260535Z AUTO 01006KT 2SM RA BKN004 BKN008 OVC012 15/15 A2991 RMK AO2
Loading
Personal Weather Stations






























Interactive Weather Map New forecast layout! Learn more

10-Day Weather Forecast

Advertisements
Track Severe Weather on mobile